createdAt,value
2023-04-15T00:01:43.133Z,97803.88
2023-04-15T00:06:55.082Z,97807.89
2023-04-15T00:12:03.812Z,97818.19
2023-04-15T00:17:11.503Z,97827.73
2023-04-15T00:22:20.026Z,97826.02
2023-04-15T00:27:27.906Z,97829.83
2023-04-15T00:32:35.704Z,97824.75
2023-04-15T00:37:44.207Z,97822.35
2023-04-15T00:42:53.857Z,97819.67
2023-04-15T00:53:17.120Z,97809.81
2023-04-15T00:58:25.596Z,97799.17
2023-04-15T01:03:33.831Z,97801.55
2023-04-15T01:08:41.785Z,97820.76
2023-04-15T01:13:49.950Z,97822.41
2023-04-15T01:18:57.616Z,97817.46
2023-04-15T01:24:09.518Z,97820.21
2023-04-15T01:29:16.932Z,97819.36
2023-04-15T01:34:25.081Z,97838.34
2023-04-15T01:39:32.531Z,97848.34
2023-04-15T01:44:40.175Z,97845.55
2023-04-15T01:49:47.598Z,97831.56
2023-04-15T01:54:55.519Z,97832.45
2023-04-15T02:00:02.852Z,97831.91
2023-04-15T02:05:11.587Z,97840.27
2023-04-15T02:10:19.454Z,97856.14
2023-04-15T02:15:26.978Z,97862.27
2023-04-15T02:20:35.482Z,97856.85
2023-04-15T02:25:43.514Z,97860.09
2023-04-15T02:31:02.480Z,97870.84
2023-04-15T02:36:12.153Z,97876.48
2023-04-15T02:41:20.693Z,97878.50
2023-04-15T02:46:28.543Z,97871.50
2023-04-15T02:51:36.002Z,97868.84
2023-04-15T02:56:43.441Z,97863.98
2023-04-15T03:02:43.396Z,97867.74
2023-04-15T03:08:08.966Z,97871.91
2023-04-15T03:13:16.876Z,97873.64
2023-04-15T03:18:24.478Z,97877.50
2023-04-15T03:23:32.487Z,97888.61
2023-04-15T03:28:40.520Z,97893.13
2023-04-15T03:33:48.197Z,97900.34
2023-04-15T03:38:56.605Z,97899.14
2023-04-15T03:44:04.282Z,97898.52
2023-04-15T03:49:12.713Z,97906.12
2023-04-15T03:54:20.205Z,97910.08
2023-04-15T03:59:27.967Z,97918.55
2023-04-15T04:04:35.508Z,97934.09
2023-04-15T04:09:43.253Z,97948.38
2023-04-15T04:14:50.887Z,97951.77
2023-04-15T04:19:58.579Z,97946.71
2023-04-15T04:25:07.448Z,97948.15
2023-04-15T04:30:16.047Z,97953.39
2023-04-15T04:35:23.983Z,97955.23
2023-04-15T04:40:31.462Z,97950.90
2023-04-15T04:45:39.390Z,97952.71
2023-04-15T04:50:47.849Z,97954.70
2023-04-15T04:55:55.270Z,97956.13
2023-04-15T05:01:03.344Z,97958.61
2023-04-15T05:06:11.015Z,97961.24
2023-04-15T05:11:18.257Z,97962.73
2023-04-15T05:16:26.187Z,97962.16
2023-04-15T05:21:33.412Z,97962.35
2023-04-15T05:26:41.964Z,97980.92
2023-04-15T05:31:49.972Z,97984.17
2023-04-15T05:36:57.772Z,97989.23
2023-04-15T05:42:06.236Z,97996.65
2023-04-15T05:47:13.970Z,97999.10
2023-04-15T05:52:21.588Z,97998.39
2023-04-15T05:57:29.033Z,97999.13
2023-04-15T06:02:36.809Z,98001.95
2023-04-15T06:07:46.132Z,98008.93
2023-04-15T06:12:57.098Z,98011.88
2023-04-15T06:18:04.505Z,98023.42
2023-04-15T06:23:12.194Z,98030.87
2023-04-15T06:28:19.517Z,98034.21
2023-04-15T06:33:26.959Z,98034.25
2023-04-15T06:38:34.462Z,98040.98
2023-04-15T06:43:42.283Z,98039.17
2023-04-15T06:48:49.634Z,98036.90
2023-04-15T06:53:57.466Z,98043.67
2023-04-15T06:59:05.072Z,98050.44
2023-04-15T07:04:12.861Z,98056.11
2023-04-15T07:09:20.335Z,98058.89
2023-04-15T07:14:28.094Z,98062.04
2023-04-15T07:19:36.076Z,98065.02
2023-04-15T07:24:45.531Z,98069.11
2023-04-15T07:29:53.448Z,98064.06
2023-04-15T07:35:01.350Z,98069.84
2023-04-15T07:40:10.908Z,98079.45
2023-04-15T07:45:18.195Z,98079.62
2023-04-15T07:54:40.046Z,98093.31
2023-04-15T07:59:47.717Z,98094.89
2023-04-15T08:04:55.457Z,98094.68
2023-04-15T08:10:03.225Z,98101.24
2023-04-15T08:15:13.303Z,98106.92
2023-04-15T08:20:20.964Z,98108.16
2023-04-15T08:25:28.898Z,98111.70
2023-04-15T08:30:36.519Z,98115.81
2023-04-15T08:35:44.263Z,98120.17
2023-04-15T08:40:51.977Z,98115.44
2023-04-15T08:46:02.258Z,98118.48
2023-04-15T08:51:11.144Z,98118.41
2023-04-15T08:56:20.583Z,98117.19
2023-04-15T09:01:28.848Z,98115.71
2023-04-15T09:06:37.045Z,98116.19
2023-04-15T09:11:44.791Z,98112.18
2023-04-15T09:17:03.105Z,98118.42
2023-04-15T09:22:11.054Z,98109.59
2023-04-15T09:27:22.349Z,98106.77
2023-04-15T09:32:30.012Z,98105.30
2023-04-15T09:37:40.779Z,98103.59
2023-04-15T09:43:02.281Z,98107.54
2023-04-15T09:48:22.375Z,98106.39
2023-04-15T09:53:31.864Z,98110.08
2023-04-15T09:58:42.006Z,98112.14
2023-04-15T10:03:50.604Z,98109.58
2023-04-15T10:08:58.659Z,98110.12
2023-04-15T10:14:06.855Z,98106.73
2023-04-15T10:19:16.837Z,98108.58
2023-04-15T10:24:24.541Z,98103.70
2023-04-15T10:29:32.288Z,98102.20
2023-04-15T10:34:40.287Z,98102.29
2023-04-15T10:39:48.104Z,98098.11
2023-04-15T10:44:59.784Z,98097.55
2023-04-15T10:50:08.538Z,98100.14
2023-04-15T10:55:23.426Z,98093.45
2023-04-15T11:00:32.488Z,98098.05
2023-04-15T11:05:56.158Z,98098.34
2023-04-15T11:11:03.641Z,98094.23
2023-04-15T11:16:11.081Z,98093.89
2023-04-15T11:21:18.463Z,98098.38
2023-04-15T11:26:29.650Z,98100.27
2023-04-15T11:31:37.299Z,98096.72
2023-04-15T11:36:47.287Z,98099.39
2023-04-15T11:41:55.644Z,98101.22
2023-04-15T11:47:03.358Z,98110.23
2023-04-15T11:52:15.304Z,98115.17
2023-04-15T11:57:22.833Z,98115.34
2023-04-15T12:02:38.404Z,98120.52
2023-04-15T12:08:04.317Z,98122.19
2023-04-15T12:13:12.773Z,98118.66
2023-04-15T12:18:23.168Z,98122.30
2023-04-15T12:23:30.519Z,98123.73
2023-04-15T12:28:39.083Z,98125.31
2023-04-15T12:33:50.002Z,98132.27
2023-04-15T12:38:58.003Z,98133.10
2023-04-15T12:44:05.865Z,98132.00
2023-04-15T12:49:14.952Z,98133.27
2023-04-15T12:54:22.852Z,98139.56
2023-04-15T12:59:30.493Z,98133.92
2023-04-15T13:04:37.788Z,98139.19
2023-04-15T13:09:45.283Z,98139.80
2023-04-15T13:14:53.191Z,98139.89
2023-04-15T13:20:00.696Z,98133.96
2023-04-15T13:25:09.859Z,98138.38
2023-04-15T13:30:17.556Z,98134.61
2023-04-15T13:35:25.068Z,98133.68
2023-04-15T13:40:32.989Z,98132.45
2023-04-15T13:45:41.016Z,98136.77
2023-04-15T13:50:48.764Z,98135.31
2023-04-15T13:55:56.413Z,98137.55
2023-04-15T14:01:05.669Z,98133.67
2023-04-15T14:06:13.486Z,98131.23
2023-04-15T14:11:20.936Z,98134.90
2023-04-15T14:16:29.081Z,98133.23
2023-04-15T14:21:36.913Z,98130.45
2023-04-15T14:26:46.081Z,98128.02
2023-04-15T14:32:04.355Z,98130.14
2023-04-15T14:37:20.351Z,98135.50
2023-04-15T14:42:28.575Z,98138.15
2023-04-15T14:47:36.355Z,98136.06
2023-04-15T14:52:43.872Z,98142.80
2023-04-15T14:57:51.436Z,98144.54
2023-04-15T15:02:59.936Z,98150.73
2023-04-15T15:08:07.693Z,98162.48
2023-04-15T15:13:15.169Z,98162.11
2023-04-15T15:18:22.769Z,98167.89
2023-04-15T15:23:30.444Z,98168.09
2023-04-15T15:28:38.581Z,98173.88
2023-04-15T15:33:46.214Z,98174.59
2023-04-15T15:38:54.225Z,98172.23
2023-04-15T15:44:01.639Z,98169.38
2023-04-15T15:52:56.814Z,98167.92
2023-04-15T15:58:04.884Z,98181.17
2023-04-15T16:03:12.748Z,98182.55
2023-04-15T16:08:21.450Z,98183.08
2023-04-15T16:13:29.402Z,98190.41
2023-04-15T16:18:36.947Z,98197.46
2023-04-15T16:23:44.632Z,98207.61
2023-04-15T16:28:52.283Z,98227.08
2023-04-15T16:34:00.312Z,98228.91
2023-04-15T16:39:07.794Z,98232.33
2023-04-15T16:44:15.140Z,98237.36
2023-04-15T16:49:22.519Z,98245.93
2023-04-15T16:54:30.718Z,98253.30
2023-04-15T16:59:39.293Z,98257.75
2023-04-15T17:04:46.541Z,98262.95
2023-04-15T17:09:54.865Z,98270.84
2023-04-15T17:15:02.346Z,98282.22
2023-04-15T17:20:10.763Z,98286.02
2023-04-15T17:25:18.046Z,98292.73
2023-04-15T17:30:25.753Z,98297.92
2023-04-15T17:35:34.212Z,98300.06
2023-04-15T17:40:41.999Z,98302.27
2023-04-15T17:45:49.340Z,98312.00
2023-04-15T17:54:11.264Z,98330.84
2023-04-15T17:59:19.386Z,98341.64
2023-04-15T18:04:27.285Z,98355.34
2023-04-15T18:09:36.444Z,98363.80
2023-04-15T18:14:44.174Z,98370.58
2023-04-15T18:19:51.962Z,98378.23
2023-04-15T18:25:04.308Z,98389.48
2023-04-15T18:30:13.725Z,98391.50
2023-04-15T18:35:22.161Z,98407.96
2023-04-15T18:40:29.784Z,98421.58
2023-04-15T18:45:37.298Z,98424.22
2023-04-15T18:53:31.662Z,98422.34
2023-04-15T18:59:09.329Z,98432.41
2023-04-15T19:04:12.527Z,98441.12
2023-04-15T19:09:20.221Z,98449.08
2023-04-15T19:14:27.610Z,98454.17
2023-04-15T19:19:34.932Z,98458.61
2023-04-15T19:24:42.360Z,98455.52
2023-04-15T19:29:50.116Z,98454.38
2023-04-15T19:34:57.811Z,98459.36
2023-04-15T19:40:05.605Z,98461.27
2023-04-15T19:45:13.849Z,98466.39
2023-04-15T19:50:26.786Z,98476.66
2023-04-15T19:55:34.445Z,98492.94
2023-04-15T20:00:42.276Z,98490.38
2023-04-15T20:05:50.065Z,98493.18
2023-04-15T20:10:58.408Z,98497.96
2023-04-15T20:16:08.002Z,98511.17
2023-04-15T20:21:15.980Z,98512.00
2023-04-15T20:26:25.028Z,98514.01
2023-04-15T20:31:34.298Z,98517.98
2023-04-15T20:36:41.793Z,98519.63
2023-04-15T20:41:50.961Z,98522.88
2023-04-15T20:46:58.508Z,98525.55
2023-04-15T20:52:08.089Z,98528.64
2023-04-15T20:57:16.930Z,98533.29
2023-04-15T21:02:25.592Z,98536.81
2023-04-15T21:07:33.467Z,98541.06
2023-04-15T21:12:41.395Z,98550.40
2023-04-15T21:17:48.957Z,98551.16
2023-04-15T21:22:56.243Z,98557.88
2023-04-15T21:28:04.511Z,98567.31
2023-04-15T21:33:12.014Z,98565.27
2023-04-15T21:38:20.796Z,98575.96
2023-04-15T21:43:30.336Z,98578.29
2023-04-15T21:48:38.016Z,98581.24
2023-04-15T21:53:45.757Z,98584.56
2023-04-15T21:58:57.052Z,98592.08
2023-04-15T22:04:06.153Z,98599.17
2023-04-15T22:09:14.488Z,98606.98
2023-04-15T22:14:22.222Z,98608.23
2023-04-15T22:19:30.328Z,98604.80
2023-04-15T22:24:40.554Z,98604.92
2023-04-15T22:29:48.195Z,98609.95
2023-04-15T22:34:55.683Z,98613.70
2023-04-15T22:40:03.604Z,98622.66
2023-04-15T22:45:13.308Z,98625.44
2023-04-15T22:50:21.194Z,98631.98
2023-04-15T22:55:28.557Z,98635.45
2023-04-15T23:00:36.402Z,98637.08
2023-04-15T23:05:45.960Z,98641.91
2023-04-15T23:10:53.884Z,98649.36
2023-04-15T23:16:01.797Z,98652.92
2023-04-15T23:21:09.468Z,98657.77
2023-04-15T23:26:16.958Z,98661.70
2023-04-15T23:31:24.891Z,98665.60
2023-04-15T23:36:33.368Z,98669.02
2023-04-15T23:41:41.508Z,98672.57
2023-04-15T23:52:38.208Z,98678.30
2023-04-15T23:57:45.938Z,98677.49
